sensor_id;sensor_type;location;lat;lon;timestamp;pressure;altitude;pressure_sealevel;temperature;humidity
28306;BME280;7516;43.570;1.448;2022-09-27T00:01:43;99096.38;;;14.97;98.96
28306;BME280;7516;43.570;1.448;2022-09-27T00:04:12;99104.16;;;14.92;99.60
28306;BME280;7516;43.570;1.448;2022-09-27T00:06:39;99100.44;;;15.00;99.65
28306;BME280;7516;43.570;1.448;2022-09-27T00:09:08;99105.13;;;14.98;99.31
28306;BME280;7516;43.570;1.448;2022-09-27T00:11:38;99098.75;;;14.81;100.00
28306;BME280;7516;43.570;1.448;2022-09-27T00:14:09;99103.13;;;14.68;100.00
28306;BME280;7516;43.570;1.448;2022-09-27T00:16:40;99095.69;;;14.59;100.00
28306;BME280;7516;43.570;1.448;2022-09-27T00:19:11;99103.16;;;14.62;100.00
28306;BME280;7516;43.570;1.448;2022-09-27T00:21:40;99095.94;;;14.51;100.00
28306;BME280;7516;43.570;1.448;2022-09-27T00:24:11;99110.59;;;14.40;100.00
28306;BME280;7516;43.570;1.448;2022-09-27T00:26:38;99098.66;;;14.31;100.00
28306;BME280;7516;43.570;1.448;2022-09-27T00:29:06;99091.97;;;14.28;100.00
28306;BME280;7516;43.570;1.448;2022-09-27T00:31:34;99117.16;;;14.24;100.00
28306;BME280;7516;43.570;1.448;2022-09-27T00:34:04;99104.75;;;14.25;100.00
28306;BME280;7516;43.570;1.448;2022-09-27T00:36:33;99110.25;;;14.23;100.00
28306;BME280;7516;43.570;1.448;2022-09-27T00:39:01;99111.44;;;14.27;100.00
28306;BME280;7516;43.570;1.448;2022-09-27T00:41:30;99102.47;;;14.35;100.00
28306;BME280;7516;43.570;1.448;2022-09-27T00:43:59;99109.56;;;14.35;100.00
28306;BME280;7516;43.570;1.448;2022-09-27T00:46:32;99107.38;;;14.31;100.00
28306;BME280;7516;43.570;1.448;2022-09-27T00:49:08;99130.13;;;14.19;100.00
28306;BME280;7516;43.570;1.448;2022-09-27T00:51:38;99152.88;;;14.14;100.00
28306;BME280;7516;43.570;1.448;2022-09-27T00:54:08;99150.59;;;14.17;100.00
28306;BME280;7516;43.570;1.448;2022-09-27T00:56:38;99153.66;;;14.14;100.00
28306;BME280;7516;43.570;1.448;2022-09-27T00:59:10;99155.28;;;14.15;100.00
28306;BME280;7516;43.570;1.448;2022-09-27T01:01:38;99147.59;;;14.07;100.00
28306;BME280;7516;43.570;1.448;2022-09-27T01:04:08;99141.09;;;14.10;100.00
28306;BME280;7516;43.570;1.448;2022-09-27T01:06:37;99154.50;;;14.08;100.00
28306;BME280;7516;43.570;1.448;2022-09-27T01:09:06;99150.03;;;14.09;100.00
28306;BME280;7516;43.570;1.448;2022-09-27T01:11:40;99143.34;;;14.13;100.00
28306;BME280;7516;43.570;1.448;2022-09-27T01:14:28;99148.41;;;14.14;100.00
28306;BME280;7516;43.570;1.448;2022-09-27T01:17:05;99146.34;;;14.16;100.00
28306;BME280;7516;43.570;1.448;2022-09-27T01:20:18;99145.56;;;14.09;100.00
28306;BME280;7516;43.570;1.448;2022-09-27T01:22:58;99155.31;;;14.02;100.00
28306;BME280;7516;43.570;1.448;2022-09-27T01:25:46;99156.34;;;14.01;100.00
28306;BME280;7516;43.570;1.448;2022-09-27T01:28:24;99159.41;;;13.98;100.00
28306;BME280;7516;43.570;1.448;2022-09-27T01:31:02;99153.09;;;13.99;100.00
28306;BME280;7516;43.570;1.448;2022-09-27T01:33:41;99162.03;;;13.91;100.00
28306;BME280;7516;43.570;1.448;2022-09-27T01:36:18;99148.50;;;13.88;100.00
28306;BME280;7516;43.570;1.448;2022-09-27T01:38:56;99153.31;;;13.91;100.00
28306;BME280;7516;43.570;1.448;2022-09-27T01:41:34;99152.13;;;13.93;100.00
28306;BME280;7516;43.570;1.448;2022-09-27T01:44:08;99148.06;;;13.91;100.00
28306;BME280;7516;43.570;1.448;2022-09-27T01:46:41;99142.00;;;13.84;100.00
28306;BME280;7516;43.570;1.448;2022-09-27T01:49:14;99139.97;;;13.86;100.00
28306;BME280;7516;43.570;1.448;2022-09-27T01:51:45;99144.63;;;13.90;100.00
28306;BME280;7516;43.570;1.448;2022-09-27T01:54:18;99143.03;;;13.89;100.00
28306;BME280;7516;43.570;1.448;2022-09-27T01:56:50;99148.06;;;13.91;100.00
28306;BME280;7516;43.570;1.448;2022-09-27T01:59:23;99145.22;;;13.92;100.00
28306;BME280;7516;43.570;1.448;2022-09-27T02:01:58;99147.88;;;13.86;100.00
28306;BME280;7516;43.570;1.448;2022-09-27T02:04:29;99149.31;;;13.88;100.00
28306;BME280;7516;43.570;1.448;2022-09-27T02:07:00;99135.72;;;13.85;100.00
28306;BME280;7516;43.570;1.448;2022-09-27T02:09:36;99127.41;;;13.88;100.00
28306;BME280;7516;43.570;1.448;2022-09-27T02:12:07;99130.06;;;13.88;100.00
28306;BME280;7516;43.570;1.448;2022-09-27T02:14:40;99122.97;;;13.88;100.00
28306;BME280;7516;43.570;1.448;2022-09-27T02:17:19;99129.44;;;13.86;100.00
28306;BME280;7516;43.570;1.448;2022-09-27T02:19:53;99131.66;;;13.82;100.00
28306;BME280;7516;43.570;1.448;2022-09-27T02:22:29;99128.66;;;13.79;100.00
28306;BME280;7516;43.570;1.448;2022-09-27T02:25:01;99131.09;;;13.74;100.00
28306;BME280;7516;43.570;1.448;2022-09-27T02:27:34;99130.69;;;13.64;100.00
28306;BME280;7516;43.570;1.448;2022-09-27T02:30:05;99139.44;;;13.57;100.00
28306;BME280;7516;43.570;1.448;2022-09-27T02:32:35;99130.13;;;13.62;100.00
28306;BME280;7516;43.570;1.448;2022-09-27T02:35:07;99132.94;;;13.67;100.00
28306;BME280;7516;43.570;1.448;2022-09-27T02:37:36;99136.34;;;13.74;100.00
28306;BME280;7516;43.570;1.448;2022-09-27T02:40:04;99135.53;;;13.73;100.00
28306;BME280;7516;43.570;1.448;2022-09-27T02:42:33;99130.28;;;13.80;100.00
28306;BME280;7516;43.570;1.448;2022-09-27T02:45:01;99132.31;;;13.78;100.00
28306;BME280;7516;43.570;1.448;2022-09-27T02:47:42;99127.44;;;13.75;100.00
28306;BME280;7516;43.570;1.448;2022-09-27T02:50:32;99120.38;;;13.69;100.00
28306;BME280;7516;43.570;1.448;2022-09-27T02:53:10;99132.31;;;13.65;100.00
28306;BME280;7516;43.570;1.448;2022-09-27T02:55:48;99129.13;;;13.63;100.00
28306;BME280;7516;43.570;1.448;2022-09-27T02:58:29;99139.22;;;13.66;100.00
28306;BME280;7516;43.570;1.448;2022-09-27T03:01:06;99125.84;;;13.67;100.00
28306;BME280;7516;43.570;1.448;2022-09-27T03:03:41;99125.44;;;13.70;100.00
28306;BME280;7516;43.570;1.448;2022-09-27T03:06:14;99126.25;;;13.71;100.00
28306;BME280;7516;43.570;1.448;2022-09-27T03:08:43;99132.72;;;13.75;100.00
28306;BME280;7516;43.570;1.448;2022-09-27T03:11:12;99132.31;;;13.78;100.00
28306;BME280;7516;43.570;1.448;2022-09-27T03:13:39;99124.59;;;13.76;100.00
28306;BME280;7516;43.570;1.448;2022-09-27T03:16:07;99131.06;;;13.87;100.00
28306;BME280;7516;43.570;1.448;2022-09-27T03:18:36;99119.75;;;13.80;100.00
28306;BME280;7516;43.570;1.448;2022-09-27T03:21:04;99125.81;;;13.74;100.00
28306;BME280;7516;43.570;1.448;2022-09-27T03:23:31;99119.72;;;13.86;100.00
28306;BME280;7516;43.570;1.448;2022-09-27T03:25:59;99120.56;;;13.80;100.00
28306;BME280;7516;43.570;1.448;2022-09-27T03:28:26;99138.38;;;13.78;100.00
28306;BME280;7516;43.570;1.448;2022-09-27T03:30:54;99126.41;;;13.82;100.00
28306;BME280;7516;43.570;1.448;2022-09-27T03:33:22;99121.94;;;13.89;100.00
28306;BME280;7516;43.570;1.448;2022-09-27T03:35:51;99134.88;;;13.91;100.00
28306;BME280;7516;43.570;1.448;2022-09-27T03:38:19;99137.16;;;13.87;100.00
28306;BME280;7516;43.570;1.448;2022-09-27T03:40:47;99143.81;;;13.90;100.00
28306;BME280;7516;43.570;1.448;2022-09-27T03:43:14;99148.06;;;13.91;100.00
28306;BME280;7516;43.570;1.448;2022-09-27T03:45:42;99148.06;;;13.91;100.00
28306;BME280;7516;43.570;1.448;2022-09-27T03:48:11;99152.31;;;13.92;100.00
28306;BME280;7516;43.570;1.448;2022-09-27T03:50:39;99150.50;;;13.92;100.00
28306;BME280;7516;43.570;1.448;2022-09-27T03:53:08;99153.31;;;13.91;100.00
28306;BME280;7516;43.570;1.448;2022-09-27T03:55:35;99156.56;;;13.93;100.00
28306;BME280;7516;43.570;1.448;2022-09-27T03:58:03;99160.41;;;13.97;100.00
28306;BME280;7516;43.570;1.448;2022-09-27T04:00:30;99152.91;;;14.01;100.00
28306;BME280;7516;43.570;1.448;2022-09-27T04:02:58;99155.97;;;13.98;100.00
28306;BME280;7516;43.570;1.448;2022-09-27T04:05:26;99159.78;;;14.02;100.00
28306;BME280;7516;43.570;1.448;2022-09-27T04:07:55;99154.31;;;14.03;100.00
28306;BME280;7516;43.570;1.448;2022-09-27T04:10:24;99148.44;;;14.01;100.00
28306;BME280;7516;43.570;1.448;2022-09-27T04:12:52;99139.94;;;13.99;100.00
28306;BME280;7516;43.570;1.448;2022-09-27T04:15:20;99147.00;;;14.05;100.00
28306;BME280;7516;43.570;1.448;2022-09-27T04:17:47;99153.34;;;13.98;100.00
28306;BME280;7516;43.570;1.448;2022-09-27T04:20:15;99162.00;;;14.05;100.00
28306;BME280;7516;43.570;1.448;2022-09-27T04:22:43;99158.13;;;14.07;100.00
28306;BME280;7516;43.570;1.448;2022-09-27T04:25:11;99174.34;;;14.11;100.00
28306;BME280;7516;43.570;1.448;2022-09-27T04:27:44;99172.34;;;14.06;100.00
28306;BME280;7516;43.570;1.448;2022-09-27T04:30:12;99172.53;;;14.11;100.00
28306;BME280;7516;43.570;1.448;2022-09-27T04:32:41;99169.69;;;14.13;100.00
28306;BME280;7516;43.570;1.448;2022-09-27T04:35:08;99179.81;;;14.09;100.00
28306;BME280;7516;43.570;1.448;2022-09-27T04:37:54;99181.66;;;14.15;100.00
28306;BME280;7516;43.570;1.448;2022-09-27T04:40:22;99186.47;;;14.18;100.00
28306;BME280;7516;43.570;1.448;2022-09-27T04:42:52;99185.50;;;14.13;100.00
28306;BME280;7516;43.570;1.448;2022-09-27T04:45:19;99191.75;;;14.18;100.00
28306;BME280;7516;43.570;1.448;2022-09-27T04:47:48;99186.47;;;14.18;100.00
28306;BME280;7516;43.570;1.448;2022-09-27T04:50:17;99198.66;;;14.19;100.00
28306;BME280;7516;43.570;1.448;2022-09-27T04:52:49;99193.38;;;14.19;100.00
28306;BME280;7516;43.570;1.448;2022-09-27T04:55:18;99193.00;;;14.16;100.00
28306;BME280;7516;43.570;1.448;2022-09-27T04:57:46;99197.22;;;14.23;100.00
28306;BME280;7516;43.570;1.448;2022-09-27T05:00:16;99201.91;;;14.15;100.00
28306;BME280;7516;43.570;1.448;2022-09-27T05:02:44;99191.56;;;14.20;100.00
28306;BME280;7516;43.570;1.448;2022-09-27T05:05:13;99203.50;;;14.22;100.00
28306;BME280;7516;43.570;1.448;2022-09-27T05:07:41;99204.91;;;14.25;100.00
28306;BME280;7516;43.570;1.448;2022-09-27T05:10:09;99206.75;;;14.24;100.00
28306;BME280;7516;43.570;1.448;2022-09-27T05:12:37;99213.84;;;14.24;100.00
28306;BME280;7516;43.570;1.448;2022-09-27T05:15:05;99206.75;;;14.24;100.00
28306;BME280;7516;43.570;1.448;2022-09-27T05:17:34;99210.78;;;14.27;100.00
28306;BME280;7516;43.570;1.448;2022-09-27T05:20:02;99214.84;;;14.29;100.00
28306;BME280;7516;43.570;1.448;2022-09-27T05:22:30;99210.16;;;14.25;100.00
28306;BME280;7516;43.570;1.448;2022-09-27T05:24:58;99207.94;;;14.28;100.00
28306;BME280;7516;43.570;1.448;2022-09-27T05:27:25;99225.97;;;14.25;100.00
28306;BME280;7516;43.570;1.448;2022-09-27T05:29:53;99219.50;;;14.27;100.00
28306;BME280;7516;43.570;1.448;2022-09-27T05:32:22;99221.53;;;14.25;100.00
28306;BME280;7516;43.570;1.448;2022-09-27T05:34:51;99228.81;;;14.30;100.00
28306;BME280;7516;43.570;1.448;2022-09-27T05:37:19;99237.13;;;14.27;100.00
28306;BME280;7516;43.570;1.448;2022-09-27T05:39:47;99226.59;;;14.27;100.00
28306;BME280;7516;43.570;1.448;2022-09-27T05:42:15;99230.66;;;14.29;100.00
28306;BME280;7516;43.570;1.448;2022-09-27T05:44:43;99232.88;;;14.26;100.00
28306;BME280;7516;43.570;1.448;2022-09-27T05:47:12;99237.34;;;14.25;100.00
28306;BME280;7516;43.570;1.448;2022-09-27T05:49:40;99236.94;;;14.28;100.00
28306;BME280;7516;43.570;1.448;2022-09-27T05:52:09;99241.19;;;14.29;100.00
28306;BME280;7516;43.570;1.448;2022-09-27T05:54:37;99250.72;;;14.30;100.00
28306;BME280;7516;43.570;1.448;2022-09-27T05:57:05;99244.44;;;14.31;100.00
28306;BME280;7516;43.570;1.448;2022-09-27T05:59:33;99246.47;;;14.29;100.00
28306;BME280;7516;43.570;1.448;2022-09-27T06:02:00;99256.00;;;14.30;100.00
28306;BME280;7516;43.570;1.448;2022-09-27T06:04:28;99248.09;;;14.30;100.00
28306;BME280;7516;43.570;1.448;2022-09-27T06:06:55;99246.63;;;14.35;100.00
28306;BME280;7516;43.570;1.448;2022-09-27T06:09:25;99248.88;;;14.38;100.00
28306;BME280;7516;43.570;1.448;2022-09-27T06:11:53;99251.34;;;14.32;100.00
28306;BME280;7516;43.570;1.448;2022-09-27T06:14:20;99256.59;;;14.39;100.00
28306;BME280;7516;43.570;1.448;2022-09-27T06:16:48;99255.38;;;14.42;100.00
28306;BME280;7516;43.570;1.448;2022-09-27T06:19:16;99252.16;;;14.40;100.00
28306;BME280;7516;43.570;1.448;2022-09-27T06:21:43;99262.69;;;14.40;100.00
28306;BME280;7516;43.570;1.448;2022-09-27T06:24:11;99266.31;;;14.45;100.00
28306;BME280;7516;43.570;1.448;2022-09-27T06:26:40;99257.59;;;14.45;100.00
28306;BME280;7516;43.570;1.448;2022-09-27T06:29:08;99248.88;;;14.44;100.00
28306;BME280;7516;43.570;1.448;2022-09-27T06:31:35;99253.94;;;14.46;100.00
28306;BME280;7516;43.570;1.448;2022-09-27T06:34:03;99266.50;;;14.50;100.00
28306;BME280;7516;43.570;1.448;2022-09-27T06:36:30;99270.75;;;14.51;100.00
28306;BME280;7516;43.570;1.448;2022-09-27T06:38:58;99282.53;;;14.49;100.00
28306;BME280;7516;43.570;1.448;2022-09-27T06:41:27;99286.56;;;14.51;100.00
28306;BME280;7516;43.570;1.448;2022-09-27T06:43:56;99289.44;;;14.50;100.00
28306;BME280;7516;43.570;1.448;2022-09-27T06:46:23;99282.94;;;14.46;100.00
28306;BME280;7516;43.570;1.448;2022-09-27T06:48:51;99296.31;;;14.44;100.00
28306;BME280;7516;43.570;1.448;2022-09-27T06:51:18;99295.13;;;14.47;100.00
28306;BME280;7516;43.570;1.448;2022-09-27T06:53:46;99304.66;;;14.48;100.00
28306;BME280;7516;43.570;1.448;2022-09-27T06:56:13;99304.66;;;14.48;100.00
28306;BME280;7516;43.570;1.448;2022-09-27T06:58:41;99304.81;;;14.53;100.00
28306;BME280;7516;43.570;1.448;2022-09-27T07:01:31;99305.84;;;14.52;100.00
28306;BME280;7516;43.570;1.448;2022-09-27T07:03:58;99309.31;;;14.46;100.00
28306;BME280;7516;43.570;1.448;2022-09-27T07:06:26;99307.69;;;14.45;100.00
28306;BME280;7516;43.570;1.448;2022-09-27T07:08:54;99307.28;;;14.48;100.00
28306;BME280;7516;43.570;1.448;2022-09-27T07:11:21;99297.53;;;14.48;100.00
28306;BME280;7516;43.570;1.448;2022-09-27T07:13:51;99295.28;;;14.52;100.00
28306;BME280;7516;43.570;1.448;2022-09-27T07:16:18;99281.69;;;14.55;100.00
28306;BME280;7516;43.570;1.448;2022-09-27T07:18:49;99282.34;;;14.50;100.00
28306;BME280;7516;43.570;1.448;2022-09-27T07:21:17;99287.38;;;14.52;100.00
28306;BME280;7516;43.570;1.448;2022-09-27T07:23:45;99284.94;;;14.57;100.00
28306;BME280;7516;43.570;1.448;2022-09-27T07:26:13;99283.09;;;14.64;100.00
28306;BME280;7516;43.570;1.448;2022-09-27T07:28:41;99290.59;;;14.60;100.00
28306;BME280;7516;43.570;1.448;2022-09-27T07:31:11;99292.22;;;14.68;100.00
28306;BME280;7516;43.570;1.448;2022-09-27T07:33:38;99297.66;;;14.73;100.00
28306;BME280;7516;43.570;1.448;2022-09-27T07:36:08;99290.53;;;14.80;100.00
28306;BME280;7516;43.570;1.448;2022-09-27T07:38:36;99297.22;;;14.83;100.00
28306;BME280;7516;43.570;1.448;2022-09-27T07:41:08;99292.09;;;14.94;100.00
28306;BME280;7516;43.570;1.448;2022-09-27T07:43:36;99290.41;;;15.06;100.00
28306;BME280;7516;43.570;1.448;2022-09-27T07:46:03;99290.34;;;15.13;100.00
28306;BME280;7516;43.570;1.448;2022-09-27T07:48:31;99297.19;;;15.27;100.00
28306;BME280;7516;43.570;1.448;2022-09-27T07:50:58;99299.63;;;15.29;99.80
28306;BME280;7516;43.570;1.448;2022-09-27T07:53:27;99307.50;;;15.35;99.88
28306;BME280;7516;43.570;1.448;2022-09-27T07:55:55;99314.41;;;15.36;99.45
28306;BME280;7516;43.570;1.448;2022-09-27T07:58:23;99306.03;;;15.39;98.50
28306;BME280;7516;43.570;1.448;2022-09-27T08:00:50;99315.47;;;15.29;98.41
28306;BME280;7516;43.570;1.448;2022-09-27T08:03:19;99307.69;;;15.34;99.16
28306;BME280;7516;43.570;1.448;2022-09-27T08:05:47;99315.41;;;15.35;99.05
28306;BME280;7516;43.570;1.448;2022-09-27T08:08:15;99318.63;;;15.44;98.03
28306;BME280;7516;43.570;1.448;2022-09-27T08:10:44;99319.03;;;15.41;95.78
28306;BME280;7516;43.570;1.448;2022-09-27T08:13:14;99334.66;;;15.42;95.87
28306;BME280;7516;43.570;1.448;2022-09-27T08:15:43;99344.59;;;15.47;95.05
28306;BME280;7516;43.570;1.448;2022-09-27T08:18:10;99341.41;;;15.38;94.97
28306;BME280;7516;43.570;1.448;2022-09-27T08:20:38;99340.59;;;15.38;95.64
28306;BME280;7516;43.570;1.448;2022-09-27T08:23:06;99341.41;;;15.38;96.72
28306;BME280;7516;43.570;1.448;2022-09-27T08:25:33;99329.44;;;15.36;96.02
28306;BME280;7516;43.570;1.448;2022-09-27T08:28:03;99330.28;;;15.30;96.76
28306;BME280;7516;43.570;1.448;2022-09-27T08:30:31;99334.34;;;15.26;97.12
28306;BME280;7516;43.570;1.448;2022-09-27T08:33:00;99337.19;;;15.24;97.27
28306;BME280;7516;43.570;1.448;2022-09-27T08:35:30;99341.88;;;15.22;98.05
28306;BME280;7516;43.570;1.448;2022-09-27T08:37:59;99341.31;;;15.14;97.11
28306;BME280;7516;43.570;1.448;2022-09-27T08:40:35;99357.47;;;14.92;99.77
28306;BME280;7516;43.570;1.448;2022-09-27T08:43:13;99346.13;;;14.79;100.00
28306;BME280;7516;43.570;1.448;2022-09-27T08:45:59;99346.94;;;14.79;100.00
28306;BME280;7516;43.570;1.448;2022-09-27T08:48:31;99343.06;;;14.88;100.00
28306;BME280;7516;43.570;1.448;2022-09-27T08:51:01;99353.00;;;14.93;100.00
28306;BME280;7516;43.570;1.448;2022-09-27T08:53:32;99352.97;;;14.99;100.00
28306;BME280;7516;43.570;1.448;2022-09-27T08:56:01;99363.91;;;15.03;100.00
28306;BME280;7516;43.570;1.448;2022-09-27T08:58:33;99357.03;;;15.02;100.00
28306;BME280;7516;43.570;1.448;2022-09-27T09:01:03;99352.97;;;14.99;100.00
28306;BME280;7516;43.570;1.448;2022-09-27T09:03:34;99354.75;;;15.12;100.00
28306;BME280;7516;43.570;1.448;2022-09-27T09:06:12;99354.25;;;15.22;99.41
28306;BME280;7516;43.570;1.448;2022-09-27T09:08:58;99361.78;;;15.25;98.57
28306;BME280;7516;43.570;1.448;2022-09-27T09:11:44;99357.91;;;15.27;99.53
28306;BME280;7516;43.570;1.448;2022-09-27T09:14:50;99352.78;;;15.39;99.07
28306;BME280;7516;43.570;1.448;2022-09-27T09:17:28;99369.59;;;15.44;98.29
28306;BME280;7516;43.570;1.448;2022-09-27T09:20:16;99371.28;;;15.32;98.08
28306;BME280;7516;43.570;1.448;2022-09-27T09:23:02;99368.63;;;15.39;97.78
28306;BME280;7516;43.570;1.448;2022-09-27T09:25:40;99374.78;;;15.26;97.93
28306;BME280;7516;43.570;1.448;2022-09-27T09:28:20;99370.25;;;15.33;95.05
28306;BME280;7516;43.570;1.448;2022-09-27T09:31:03;99366.53;;;15.48;95.60
28306;BME280;7516;43.570;1.448;2022-09-27T09:33:36;99360.00;;;15.50;95.54
28306;BME280;7516;43.570;1.448;2022-09-27T09:36:12;99361.25;;;15.54;94.57
28306;BME280;7516;43.570;1.448;2022-09-27T09:38:49;99364.69;;;15.48;91.86
28306;BME280;7516;43.570;1.448;2022-09-27T09:41:21;99374.16;;;15.69;93.07
28306;BME280;7516;43.570;1.448;2022-09-27T09:43:53;99359.78;;;15.58;90.78
28306;BME280;7516;43.570;1.448;2022-09-27T09:46:29;99369.28;;;15.66;88.32
28306;BME280;7516;43.570;1.448;2022-09-27T09:48:58;99362.25;;;15.85;88.21
28306;BME280;7516;43.570;1.448;2022-09-27T09:51:34;99366.56;;;16.04;85.41
28306;BME280;7516;43.570;1.448;2022-09-27T09:54:13;99373.91;;;16.27;83.38
28306;BME280;7516;43.570;1.448;2022-09-27T09:56:44;99383.94;;;16.43;83.66
28306;BME280;7516;43.570;1.448;2022-09-27T09:59:18;99378.88;;;16.41;83.24
28306;BME280;7516;43.570;1.448;2022-09-27T10:01:48;99384.56;;;16.38;80.26
28306;BME280;7516;43.570;1.448;2022-09-27T10:04:19;99388.38;;;16.24;76.76
28306;BME280;7516;43.570;1.448;2022-09-27T10:06:48;99383.44;;;16.28;76.99
28306;BME280;7516;43.570;1.448;2022-09-27T10:09:22;99387.91;;;16.27;75.95
28306;BME280;7516;43.570;1.448;2022-09-27T10:11:50;99394.81;;;16.35;75.85
28306;BME280;7516;43.570;1.448;2022-09-27T10:14:20;99401.16;;;16.52;76.58
28306;BME280;7516;43.570;1.448;2022-09-27T10:16:53;99405.63;;;16.51;75.13
28306;BME280;7516;43.570;1.448;2022-09-27T10:19:26;99397.53;;;16.46;75.48
28306;BME280;7516;43.570;1.448;2022-09-27T10:21:58;99392.41;;;16.51;75.51
28306;BME280;7516;43.570;1.448;2022-09-27T10:24:27;99394.44;;;16.49;74.61
28306;BME280;7516;43.570;1.448;2022-09-27T10:26:59;99396.66;;;16.52;74.99
28306;BME280;7516;43.570;1.448;2022-09-27T10:29:30;99394.00;;;16.77;76.03
28306;BME280;7516;43.570;1.448;2022-09-27T10:32:02;99392.00;;;16.73;73.56
28306;BME280;7516;43.570;1.448;2022-09-27T10:34:32;99396.13;;;16.69;70.27
28306;BME280;7516;43.570;1.448;2022-09-27T10:37:13;99377.91;;;16.79;70.42
28306;BME280;7516;43.570;1.448;2022-09-27T10:39:43;99401.06;;;16.83;68.88
28306;BME280;7516;43.570;1.448;2022-09-27T10:42:32;99383.19;;;16.79;69.27
28306;BME280;7516;43.570;1.448;2022-09-27T10:45:23;99401.56;;;16.92;68.97
28306;BME280;7516;43.570;1.448;2022-09-27T10:47:53;99387.75;;;16.90;67.60
28306;BME280;7516;43.570;1.448;2022-09-27T10:50:24;99383.47;;;16.89;68.22
28306;BME280;7516;43.570;1.448;2022-09-27T10:53:04;99387.00;;;16.83;66.88
28306;BME280;7516;43.570;1.448;2022-09-27T10:55:34;99379.78;;;16.72;66.99
28306;BME280;7516;43.570;1.448;2022-09-27T10:58:03;99370.78;;;16.79;67.11
28306;BME280;7516;43.570;1.448;2022-09-27T11:00:32;99380.69;;;16.84;67.83
28306;BME280;7516;43.570;1.448;2022-09-27T11:03:05;99377.22;;;16.83;68.54
28306;BME280;7516;43.570;1.448;2022-09-27T11:05:35;99374.97;;;16.87;67.82
28306;BME280;7516;43.570;1.448;2022-09-27T11:08:27;99385.34;;;16.88;67.92
28306;BME280;7516;43.570;1.448;2022-09-27T11:11:17;99374.56;;;17.02;67.10
28306;BME280;7516;43.570;1.448;2022-09-27T11:14:01;99373.94;;;17.06;67.42
28306;BME280;7516;43.570;1.448;2022-09-27T11:16:47;99375.88;;;17.29;68.29
28306;BME280;7516;43.570;1.448;2022-09-27T11:19:37;99371.13;;;17.49;67.06
28306;BME280;7516;43.570;1.448;2022-09-27T11:22:22;99362.63;;;17.59;64.40
28306;BME280;7516;43.570;1.448;2022-09-27T11:25:00;99372.72;;;17.80;63.69
28306;BME280;7516;43.570;1.448;2022-09-27T11:27:41;99373.56;;;18.04;64.38
28306;BME280;7516;43.570;1.448;2022-09-27T11:30:14;99374.84;;;18.01;61.42
28306;BME280;7516;43.570;1.448;2022-09-27T11:33:06;99366.53;;;17.98;62.56
28306;BME280;7516;43.570;1.448;2022-09-27T11:35:52;99375.41;;;17.92;63.39
28306;BME280;7516;43.570;1.448;2022-09-27T11:38:30;99376.88;;;17.76;61.60
28306;BME280;7516;43.570;1.448;2022-09-27T11:41:13;99373.38;;;17.64;61.36
28306;BME280;7516;43.570;1.448;2022-09-27T11:44:12;99381.13;;;17.77;61.45
28306;BME280;7516;43.570;1.448;2022-09-27T11:46:51;99382.22;;;17.58;62.68
28306;BME280;7516;43.570;1.448;2022-09-27T11:52:29;99386.88;;;17.44;62.37
28306;BME280;7516;43.570;1.448;2022-09-27T11:55:19;99383.31;;;17.50;62.55
28306;BME280;7516;43.570;1.448;2022-09-27T11:57:55;99382.38;;;17.63;62.57
28306;BME280;7516;43.570;1.448;2022-09-27T12:00:35;99377.53;;;17.72;63.02
28306;BME280;7516;43.570;1.448;2022-09-27T12:06:12;99381.78;;;18.02;60.96
28306;BME280;7516;43.570;1.448;2022-09-27T12:08:53;99373.69;;;17.97;60.71
28306;BME280;7516;43.570;1.448;2022-09-27T12:11:28;99379.53;;;17.88;60.90
28306;BME280;7516;43.570;1.448;2022-09-27T12:14:00;99381.75;;;17.91;60.51
28306;BME280;7516;43.570;1.448;2022-09-27T12:16:30;99379.91;;;17.91;60.57
28306;BME280;7516;43.570;1.448;2022-09-27T12:19:01;99376.44;;;17.91;61.42
28306;BME280;7516;43.570;1.448;2022-09-27T12:21:31;99394.31;;;17.84;60.54
28306;BME280;7516;43.570;1.448;2022-09-27T12:24:01;99382.31;;;17.81;61.46
28306;BME280;7516;43.570;1.448;2022-09-27T12:26:33;99387.50;;;17.76;61.91
28306;BME280;7516;43.570;1.448;2022-09-27T12:29:08;99390.31;;;17.63;62.41
28306;BME280;7516;43.570;1.448;2022-09-27T12:31:43;99375.13;;;17.70;62.53
28306;BME280;7516;43.570;1.448;2022-09-27T12:34:16;99388.53;;;17.57;63.04
28306;BME280;7516;43.570;1.448;2022-09-27T12:36:50;99408.66;;;17.46;63.40
28306;BME280;7516;43.570;1.448;2022-09-27T12:39:24;99392.97;;;17.45;63.90
28306;BME280;7516;43.570;1.448;2022-09-27T12:41:55;99392.13;;;17.33;64.70
28306;BME280;7516;43.570;1.448;2022-09-27T12:44:28;99394.19;;;17.30;65.95
28306;BME280;7516;43.570;1.448;2022-09-27T12:47:05;99383.94;;;17.34;66.29
28306;BME280;7516;43.570;1.448;2022-09-27T12:49:43;99406.56;;;17.18;66.95
28306;BME280;7516;43.570;1.448;2022-09-27T12:52:19;99388.75;;;17.25;67.22
28306;BME280;7516;43.570;1.448;2022-09-27T12:58:08;99381.97;;;17.29;68.18
28306;BME280;7516;43.570;1.448;2022-09-27T13:00:42;99369.41;;;17.55;68.31
28306;BME280;7516;43.570;1.448;2022-09-27T13:03:23;99361.91;;;17.52;67.38
28306;BME280;7516;43.570;1.448;2022-09-27T13:12:08;99356.78;;;17.68;65.51
28306;BME280;7516;43.570;1.448;2022-09-27T13:14:43;99354.13;;;17.68;65.48
28306;BME280;7516;43.570;1.448;2022-09-27T13:17:48;99361.28;;;17.68;64.30
28306;BME280;7516;43.570;1.448;2022-09-27T13:20:38;99361.41;;;17.73;65.14
28306;BME280;7516;43.570;1.448;2022-09-27T13:26:22;99342.66;;;17.75;65.78
28306;BME280;7516;43.570;1.448;2022-09-27T13:29:00;99347.72;;;17.76;65.61
28306;BME280;7516;43.570;1.448;2022-09-27T13:34:43;99358.81;;;17.85;66.44
28306;BME280;7516;43.570;1.448;2022-09-27T13:37:35;99348.53;;;17.88;65.10
28306;BME280;7516;43.570;1.448;2022-09-27T13:40:28;99357.25;;;17.77;66.71
28306;BME280;7516;43.570;1.448;2022-09-27T13:46:15;99348.34;;;18.01;67.24
28306;BME280;7516;43.570;1.448;2022-09-27T13:48:48;99338.75;;;18.12;67.41
28306;BME280;7516;43.570;1.448;2022-09-27T13:51:34;99345.22;;;18.16;65.95
28306;BME280;7516;43.570;1.448;2022-09-27T13:54:05;99352.59;;;18.26;66.23
28306;BME280;7516;43.570;1.448;2022-09-27T13:56:51;99338.66;;;18.19;66.19
28306;BME280;7516;43.570;1.448;2022-09-27T13:59:24;99343.50;;;18.10;66.71